createdAt,value
2018-06-08T00:01:09.145Z,22.30
2018-06-08T00:03:36.593Z,19.07
2018-06-08T00:06:04.164Z,22.80
2018-06-08T00:08:31.605Z,24.23
2018-06-08T00:10:59.072Z,21.63
2018-06-08T00:13:27.853Z,26.00
2018-06-08T00:15:55.405Z,25.30
2018-06-08T00:18:22.978Z,21.50
2018-06-08T00:20:50.414Z,24.23
2018-06-08T00:23:17.894Z,22.23
2018-06-08T00:25:45.499Z,24.93
2018-06-08T00:28:13.007Z,25.60
2018-06-08T00:30:40.521Z,22.43
2018-06-08T00:33:07.925Z,27.63
2018-06-08T00:35:35.338Z,25.30
2018-06-08T00:38:02.857Z,24.67
2018-06-08T00:40:30.313Z,29.00
2018-06-08T00:42:57.899Z,29.53
2018-06-08T00:45:25.374Z,33.93
2018-06-08T00:47:52.982Z,28.10
2018-06-08T00:50:20.521Z,30.47
2018-06-08T00:52:47.973Z,28.10
2018-06-08T00:55:15.396Z,28.13
2018-06-08T00:57:42.825Z,26.47
2018-06-08T01:00:10.289Z,31.83
2018-06-08T01:02:37.712Z,30.90
2018-06-08T01:05:05.263Z,28.20
2018-06-08T01:07:32.754Z,31.47
2018-06-08T01:10:00.179Z,28.30
2018-06-08T01:12:27.730Z,32.77
2018-06-08T01:14:55.276Z,34.13
2018-06-08T01:17:22.848Z,30.67
2018-06-08T01:19:51.394Z,31.40
2018-06-08T01:22:18.848Z,34.33
2018-06-08T01:24:46.418Z,31.20
2018-06-08T01:27:13.912Z,34.70
2018-06-08T01:29:41.375Z,34.83
2018-06-08T01:32:08.749Z,35.47
2018-06-08T01:34:36.291Z,34.13
2018-06-08T01:37:03.743Z,34.63
2018-06-08T01:39:31.242Z,33.53
2018-06-08T01:41:58.723Z,38.90
2018-06-08T01:44:26.391Z,32.70
2018-06-08T01:46:53.882Z,35.20
2018-06-08T01:49:21.276Z,34.17
2018-06-08T01:51:48.919Z,38.63
2018-06-08T01:54:16.504Z,39.47
2018-06-08T01:56:44.035Z,35.23
2018-06-08T01:59:11.506Z,39.07
2018-06-08T02:01:39.028Z,39.53
2018-06-08T02:04:06.497Z,39.57
2018-06-08T02:06:34.014Z,43.57
2018-06-08T02:09:01.721Z,41.13
2018-06-08T02:11:29.259Z,37.70
2018-06-08T02:13:56.908Z,44.63
2018-06-08T02:16:24.445Z,49.97
2018-06-08T02:18:51.991Z,41.40
2018-06-08T02:21:19.515Z,41.03
2018-06-08T02:23:47.117Z,45.50
2018-06-08T02:26:14.736Z,43.70
2018-06-08T02:28:42.271Z,43.33
2018-06-08T02:31:09.717Z,39.10
2018-06-08T02:33:37.109Z,34.27
2018-06-08T02:36:04.611Z,38.07
2018-06-08T02:38:32.258Z,42.77
2018-06-08T02:40:59.757Z,43.80
2018-06-08T02:43:27.284Z,47.07
2018-06-08T02:45:54.697Z,51.20
2018-06-08T02:48:22.124Z,51.20
2018-06-08T02:50:49.536Z,56.23
2018-06-08T02:53:17.027Z,48.30
2018-06-08T02:55:44.600Z,49.70
2018-06-08T02:58:12.217Z,44.10
2018-06-08T03:00:39.657Z,48.20
2018-06-08T03:03:07.188Z,52.90
2018-06-08T03:05:34.773Z,38.67
2018-06-08T03:08:02.378Z,37.23
2018-06-08T03:10:30.279Z,40.80
2018-06-08T03:12:57.842Z,41.90
2018-06-08T03:15:25.353Z,40.43
2018-06-08T03:17:52.742Z,41.33
2018-06-08T03:20:20.129Z,41.03
2018-06-08T03:22:47.695Z,41.57
2018-06-08T03:25:15.069Z,47.13
2018-06-08T03:27:42.644Z,43.27
2018-06-08T03:30:10.162Z,42.00
2018-06-08T03:32:37.600Z,42.50
2018-06-08T03:35:05.033Z,47.70
2018-06-08T03:37:32.687Z,49.60
2018-06-08T03:40:00.168Z,49.73
2018-06-08T03:42:27.565Z,53.43
2018-06-08T03:44:55.061Z,53.17
2018-06-08T03:47:22.553Z,51.97
2018-06-08T03:49:49.947Z,54.27
2018-06-08T03:52:17.381Z,49.80
2018-06-08T03:54:44.954Z,56.63
2018-06-08T03:57:12.555Z,49.87
2018-06-08T03:59:39.976Z,54.30
2018-06-08T04:02:07.331Z,45.97
2018-06-08T04:04:34.892Z,52.40
2018-06-08T04:07:02.318Z,51.47
2018-06-08T04:09:29.800Z,53.63
2018-06-08T04:11:57.269Z,50.83
2018-06-08T04:14:25.549Z,51.57
2018-06-08T04:16:53.013Z,56.30
2018-06-08T04:19:20.624Z,44.30
2018-06-08T04:21:48.272Z,50.80
2018-06-08T04:24:15.708Z,52.20
2018-06-08T04:26:43.272Z,48.67
2018-06-08T04:29:10.693Z,52.07
2018-06-08T04:31:38.193Z,48.00
2018-06-08T04:34:05.573Z,44.83
2018-06-08T04:36:33.149Z,46.57
2018-06-08T04:39:00.627Z,48.23
2018-06-08T04:41:28.154Z,42.83
2018-06-08T04:43:55.653Z,44.33
2018-06-08T04:46:23.145Z,42.37
2018-06-08T04:48:50.552Z,43.20
2018-06-08T04:51:17.950Z,44.43
2018-06-08T04:53:45.581Z,44.13
2018-06-08T04:56:13.009Z,49.00
2018-06-08T04:58:40.548Z,48.23
2018-06-08T05:01:07.937Z,40.03
2018-06-08T05:03:35.492Z,42.97
2018-06-08T05:06:03.003Z,39.50
2018-06-08T05:08:30.577Z,43.43
2018-06-08T05:10:58.099Z,41.97
2018-06-08T05:13:25.550Z,40.93
2018-06-08T05:15:53.094Z,39.33
2018-06-08T05:18:20.499Z,48.27
2018-06-08T05:20:47.896Z,42.70
2018-06-08T05:23:15.281Z,43.53
2018-06-08T05:25:42.672Z,43.70
2018-06-08T05:28:10.273Z,45.93
2018-06-08T05:30:37.736Z,42.40
2018-06-08T05:33:05.200Z,46.27
2018-06-08T05:35:32.670Z,51.40
2018-06-08T05:38:00.432Z,53.93
2018-06-08T05:40:28.107Z,54.57
2018-06-08T05:42:55.705Z,55.87
2018-06-08T05:45:23.079Z,56.93
2018-06-08T05:47:50.507Z,63.53
2018-06-08T05:50:17.968Z,58.00
2018-06-08T05:52:45.392Z,60.60
2018-06-08T05:55:12.803Z,57.83
2018-06-08T05:57:40.204Z,61.47
2018-06-08T06:00:07.652Z,63.83
2018-06-08T06:02:35.054Z,63.60
2018-06-08T06:05:02.547Z,62.37
2018-06-08T06:07:30.947Z,75.73
2018-06-08T06:09:58.474Z,70.80
2018-06-08T06:12:25.888Z,77.57
2018-06-08T06:14:53.516Z,67.40
2018-06-08T06:17:21.310Z,68.87
2018-06-08T06:19:48.715Z,75.03
2018-06-08T06:22:16.322Z,75.73
2018-06-08T06:24:43.777Z,74.77
2018-06-08T06:27:11.201Z,82.47
2018-06-08T06:29:38.805Z,87.83
2018-06-08T06:32:06.161Z,85.43
2018-06-08T06:34:33.778Z,74.00
2018-06-08T06:37:01.201Z,89.37
2018-06-08T06:39:28.764Z,77.20
2018-06-08T06:41:56.308Z,85.57
2018-06-08T06:44:23.826Z,73.10
2018-06-08T06:46:51.170Z,81.40
2018-06-08T06:49:18.624Z,70.13
2018-06-08T06:51:45.977Z,73.33
2018-06-08T06:54:13.569Z,81.47
2018-06-08T06:56:41.137Z,81.83
2018-06-08T06:59:08.617Z,74.37
2018-06-08T07:01:35.964Z,77.17
2018-06-08T07:04:03.576Z,67.53
2018-06-08T07:06:31.137Z,72.70
2018-06-08T07:08:58.633Z,62.80
2018-06-08T07:11:26.211Z,65.33
2018-06-08T07:13:53.667Z,61.43
2018-06-08T07:16:21.050Z,61.67
2018-06-08T07:18:48.700Z,67.10
2018-06-08T07:21:16.093Z,65.20
2018-06-08T07:23:43.681Z,66.67
2018-06-08T07:26:11.107Z,61.20
2018-06-08T07:28:38.570Z,64.20
2018-06-08T07:31:05.988Z,51.53
2018-06-08T07:33:33.367Z,56.13
2018-06-08T07:36:01.351Z,57.57
2018-06-08T07:38:28.707Z,53.80
2018-06-08T07:40:56.133Z,54.73
2018-06-08T07:43:23.543Z,55.67
2018-06-08T07:45:51.142Z,58.07
2018-06-08T07:48:18.529Z,49.83
2018-06-08T07:50:45.938Z,55.10
2018-06-08T07:53:13.378Z,51.13
2018-06-08T07:55:40.785Z,52.73
2018-06-08T07:58:08.141Z,51.03
2018-06-08T08:00:35.606Z,55.63
2018-06-08T08:03:03.104Z,53.77
2018-06-08T08:05:30.445Z,50.30
2018-06-08T08:07:57.995Z,53.77
2018-06-08T08:10:25.401Z,51.53
2018-06-08T08:12:52.833Z,50.70
2018-06-08T08:15:20.294Z,51.40
2018-06-08T08:17:47.761Z,52.53
2018-06-08T08:20:15.144Z,47.77
2018-06-08T08:22:42.715Z,49.23
2018-06-08T08:25:10.316Z,52.70
2018-06-08T08:27:37.677Z,53.83
2018-06-08T08:30:05.315Z,54.67
2018-06-08T08:32:32.866Z,52.43
2018-06-08T08:35:00.400Z,46.93
2018-06-08T08:37:27.942Z,51.80
2018-06-08T08:39:55.462Z,50.03
2018-06-08T08:42:22.861Z,42.80
2018-06-08T08:44:50.443Z,46.47
2018-06-08T08:47:18.013Z,47.00
2018-06-08T08:49:45.541Z,44.40
2018-06-08T08:52:13.038Z,48.07
2018-06-08T08:54:40.472Z,49.23
2018-06-08T08:57:07.927Z,47.83
2018-06-08T08:59:35.285Z,49.20
2018-06-08T09:02:02.738Z,47.57
2018-06-08T09:04:30.155Z,51.30
2018-06-08T09:06:57.743Z,47.70
2018-06-08T09:09:25.324Z,42.10
2018-06-08T09:11:52.702Z,46.93
2018-06-08T09:14:20.077Z,48.83
2018-06-08T09:16:47.480Z,46.50
2018-06-08T09:19:14.932Z,49.40
2018-06-08T09:21:42.323Z,44.90
2018-06-08T09:24:09.864Z,46.03
2018-06-08T09:26:37.448Z,48.07
2018-06-08T09:29:04.794Z,44.27
2018-06-08T09:31:32.221Z,42.63
2018-06-08T09:33:59.674Z,47.23
2018-06-08T09:36:27.136Z,43.03
2018-06-08T09:38:54.495Z,49.20
2018-06-08T09:41:21.902Z,46.43
2018-06-08T09:43:49.293Z,38.37
2018-06-08T09:46:16.748Z,39.90
2018-06-08T09:48:44.202Z,39.73
2018-06-08T09:51:11.827Z,36.50
2018-06-08T09:53:39.276Z,33.37
2018-06-08T09:56:06.808Z,34.20
2018-06-08T09:58:34.284Z,33.37
2018-06-08T10:01:01.858Z,36.63
2018-06-08T10:03:29.325Z,35.03
2018-06-08T10:05:56.749Z,35.63
2018-06-08T10:08:24.433Z,36.33
2018-06-08T10:10:51.796Z,33.03
2018-06-08T10:13:19.214Z,35.20
2018-06-08T10:15:46.605Z,37.17
2018-06-08T10:18:14.090Z,39.43
2018-06-08T10:20:41.648Z,41.03
2018-06-08T10:23:09.084Z,39.10
2018-06-08T10:25:36.560Z,41.07
2018-06-08T10:28:03.989Z,43.57
2018-06-08T10:30:31.443Z,44.90
2018-06-08T10:32:59.056Z,47.97
2018-06-08T10:35:26.496Z,59.03
2018-06-08T10:37:53.932Z,54.37
2018-06-08T10:40:21.505Z,51.47
2018-06-08T10:42:48.960Z,47.37
2018-06-08T10:48:06.834Z,41.67
2018-06-08T10:50:35.532Z,45.93
2018-06-08T10:53:02.892Z,40.33
2018-06-08T10:55:30.188Z,35.87
2018-06-08T10:57:57.520Z,35.50
2018-06-08T11:00:25.729Z,38.40
2018-06-08T11:02:53.048Z,39.40
2018-06-08T11:05:20.324Z,36.60
2018-06-08T11:07:47.648Z,36.73
2018-06-08T11:10:14.933Z,38.13
2018-06-08T11:12:42.273Z,38.53
2018-06-08T11:15:09.597Z,37.13
2018-06-08T11:17:36.872Z,36.83
2018-06-08T11:20:04.346Z,39.73
2018-06-08T11:22:31.659Z,35.57
2018-06-08T11:24:59.048Z,39.87
2018-06-08T11:27:26.365Z,36.93
2018-06-08T11:29:53.704Z,38.90
2018-06-08T11:32:21.024Z,27.13
2018-06-08T11:34:48.356Z,25.37
2018-06-08T11:37:15.632Z,23.10
2018-06-08T11:39:42.969Z,22.00
2018-06-08T11:42:10.252Z,23.83
2018-06-08T11:44:37.609Z,28.57
2018-06-08T11:47:04.929Z,28.33
2018-06-08T11:49:32.229Z,31.43
2018-06-08T11:51:59.607Z,24.70
2018-06-08T11:54:26.970Z,21.73
2018-06-08T11:56:54.289Z,16.93
2018-06-08T11:59:21.703Z,14.67
2018-06-08T12:01:49.040Z,13.60
2018-06-08T12:04:16.333Z,13.43
2018-06-08T12:06:43.655Z,14.00
2018-06-08T12:09:10.984Z,15.47
2018-06-08T12:11:38.324Z,15.60
2018-06-08T12:14:05.648Z,15.60
2018-06-08T12:16:32.928Z,17.20
2018-06-08T12:19:00.249Z,15.10
2018-06-08T12:21:27.537Z,15.67
2018-06-08T12:23:56.528Z,15.07
2018-06-08T12:26:24.163Z,11.30
2018-06-08T12:28:51.472Z,11.70
2018-06-08T12:31:18.769Z,11.93
2018-06-08T12:33:46.106Z,12.63
2018-06-08T12:36:13.414Z,15.87
2018-06-08T12:38:41.197Z,10.07
2018-06-08T12:41:08.481Z,10.40
2018-06-08T12:43:35.774Z,11.63
2018-06-08T12:46:03.186Z,11.77
2018-06-08T12:48:30.500Z,11.63
2018-06-08T12:50:57.866Z,11.40
2018-06-08T12:53:25.135Z,9.67
2018-06-08T12:55:52.432Z,14.73
2018-06-08T12:58:19.720Z,13.57
2018-06-08T13:00:47.026Z,10.93
2018-06-08T13:03:14.347Z,11.50
2018-06-08T13:05:41.676Z,13.40
2018-06-08T13:08:08.963Z,12.90
2018-06-08T13:10:36.316Z,13.70
2018-06-08T13:13:03.724Z,12.50
2018-06-08T13:15:31.081Z,11.30
2018-06-08T13:17:58.435Z,12.03
2018-06-08T13:20:25.744Z,12.00
2018-06-08T13:22:53.559Z,12.53
2018-06-08T13:25:20.869Z,13.63
2018-06-08T13:27:48.572Z,13.83
2018-06-08T13:30:15.919Z,13.20
2018-06-08T13:32:43.696Z,13.60
2018-06-08T13:35:11.034Z,13.93
2018-06-08T13:37:38.324Z,14.50
2018-06-08T13:40:05.682Z,13.87
2018-06-08T13:42:33.563Z,13.20
2018-06-08T13:45:00.892Z,14.80
2018-06-08T13:47:28.218Z,14.13
2018-06-08T13:49:55.539Z,13.30
2018-06-08T13:52:22.854Z,13.93
2018-06-08T13:54:50.161Z,15.30
2018-06-08T13:57:17.471Z,16.67
2018-06-08T13:59:44.788Z,15.67
2018-06-08T14:02:12.462Z,16.53
2018-06-08T14:04:39.799Z,14.97
2018-06-08T14:07:07.083Z,15.03
2018-06-08T14:09:34.378Z,15.77
2018-06-08T14:12:01.751Z,14.67
2018-06-08T14:14:29.013Z,15.37
2018-06-08T14:16:57.796Z,16.10
2018-06-08T14:19:25.093Z,16.50
2018-06-08T14:21:52.542Z,18.40
2018-06-08T14:24:20.526Z,17.90
2018-06-08T14:26:49.953Z,17.83
2018-06-08T14:29:18.466Z,16.37
2018-06-08T14:31:46.742Z,15.60
2018-06-08T14:34:19.346Z,16.53
2018-06-08T14:36:48.191Z,15.67
2018-06-08T14:39:16.337Z,14.90
2018-06-08T14:41:47.301Z,16.67
2018-06-08T14:44:17.260Z,15.80
2018-06-08T14:46:47.290Z,13.87
2018-06-08T14:49:15.046Z,15.77
2018-06-08T14:51:42.968Z,15.47
2018-06-08T14:54:10.849Z,15.93
2018-06-08T14:56:39.403Z,18.73
2018-06-08T14:59:07.844Z,15.67
2018-06-08T15:01:36.298Z,16.83
2018-06-08T15:04:03.832Z,16.50
2018-06-08T15:06:31.938Z,16.10
2018-06-08T15:08:59.669Z,19.17
2018-06-08T15:11:27.972Z,20.07
2018-06-08T15:13:55.922Z,17.50
2018-06-08T15:16:24.760Z,18.00
2018-06-08T15:18:53.219Z,20.10
2018-06-08T15:21:20.997Z,20.70
2018-06-08T15:23:49.062Z,20.20
2018-06-08T15:26:16.880Z,20.07
2018-06-08T15:28:44.444Z,21.43
2018-06-08T15:31:13.579Z,22.07
2018-06-08T15:33:42.557Z,21.40
2018-06-08T15:36:10.365Z,20.27
2018-06-08T15:38:38.055Z,20.43
2018-06-08T15:41:05.853Z,21.03
2018-06-08T15:43:33.632Z,20.43
2018-06-08T15:46:01.857Z,20.90
2018-06-08T15:48:29.590Z,23.30
2018-06-08T15:50:57.303Z,23.80
2018-06-08T15:53:25.720Z,25.67
2018-06-08T15:55:53.725Z,26.20
2018-06-08T15:58:21.105Z,28.93
2018-06-08T16:00:50.263Z,29.27
2018-06-08T16:03:18.419Z,32.30
2018-06-08T16:05:46.432Z,29.27
2018-06-08T16:08:15.101Z,28.50
2018-06-08T16:10:42.924Z,30.83
2018-06-08T16:13:10.839Z,31.87
2018-06-08T16:15:39.208Z,29.60
2018-06-08T16:18:08.039Z,27.37
2018-06-08T16:20:36.627Z,29.03
2018-06-08T16:23:04.698Z,32.73
2018-06-08T16:25:32.593Z,32.60
2018-06-08T16:28:00.548Z,36.70
2018-06-08T16:30:28.876Z,33.40
2018-06-08T16:32:56.736Z,31.40
2018-06-08T16:35:24.613Z,33.77
2018-06-08T16:37:53.096Z,34.67
2018-06-08T16:40:20.738Z,33.90
2018-06-08T16:42:48.642Z,32.67
2018-06-08T16:45:16.689Z,30.30
2018-06-08T16:47:44.701Z,31.37
2018-06-08T16:50:12.855Z,27.50
2018-06-08T16:52:40.915Z,30.37
2018-06-08T16:55:08.917Z,30.17
2018-06-08T16:57:36.573Z,31.60
2018-06-08T17:00:04.609Z,33.37
2018-06-08T17:02:32.369Z,33.10
2018-06-08T17:05:00.325Z,30.60
2018-06-08T17:07:28.800Z,30.27
2018-06-08T17:09:56.308Z,31.57
2018-06-08T17:12:23.741Z,31.03
2018-06-08T17:14:51.698Z,30.33
2018-06-08T17:17:19.596Z,29.73
2018-06-08T17:19:47.095Z,30.40
2018-06-08T17:22:14.633Z,31.37
2018-06-08T17:24:43.124Z,31.47
2018-06-08T17:27:11.363Z,31.80
2018-06-08T17:29:39.448Z,31.43
2018-06-08T17:32:08.013Z,31.53
2018-06-08T17:34:36.394Z,32.40
2018-06-08T17:37:03.873Z,32.33
2018-06-08T17:39:31.749Z,32.43
2018-06-08T17:41:59.588Z,33.23
2018-06-08T17:44:31.460Z,35.47
2018-06-08T17:46:59.317Z,33.30
2018-06-08T17:49:27.215Z,32.83
2018-06-08T17:51:54.925Z,34.87
2018-06-08T17:54:23.822Z,34.73
2018-06-08T17:56:51.577Z,35.07
2018-06-08T17:59:19.894Z,33.87
2018-06-08T18:01:47.744Z,34.47
2018-06-08T18:04:15.621Z,33.03
2018-06-08T18:06:43.885Z,34.03
2018-06-08T18:09:11.296Z,34.30
2018-06-08T18:11:38.767Z,33.93
2018-06-08T18:14:06.941Z,32.53
2018-06-08T18:16:34.660Z,30.77
2018-06-08T18:19:02.233Z,31.10
2018-06-08T18:21:35.529Z,32.23
2018-06-08T18:24:04.116Z,31.73
2018-06-08T18:26:32.037Z,31.50
2018-06-08T18:29:00.932Z,35.10
2018-06-08T18:31:28.944Z,32.30
2018-06-08T18:33:56.985Z,33.27
2018-06-08T18:36:25.405Z,33.47
2018-06-08T18:38:53.368Z,32.10
2018-06-08T18:41:21.040Z,34.37
2018-06-08T18:43:48.900Z,35.40
2018-06-08T18:46:16.644Z,33.73
2018-06-08T18:48:44.569Z,32.90
2018-06-08T18:51:12.547Z,33.93
2018-06-08T18:53:40.415Z,34.20
2018-06-08T18:56:08.354Z,33.67
2018-06-08T18:58:36.117Z,34.70
2018-06-08T19:01:03.976Z,33.63
2018-06-08T19:03:31.469Z,34.57
2018-06-08T19:06:00.024Z,34.37
2018-06-08T19:08:27.451Z,33.13
2018-06-08T19:10:55.784Z,35.50
2018-06-08T19:13:25.056Z,35.77
2018-06-08T19:15:52.552Z,36.27
2018-06-08T19:18:20.263Z,35.53
2018-06-08T19:20:48.409Z,37.20
2018-06-08T19:23:16.708Z,38.30
2018-06-08T19:25:45.070Z,36.70
2018-06-08T19:28:12.697Z,40.83
2018-06-08T19:30:40.814Z,38.00
2018-06-08T19:33:09.544Z,37.00
2018-06-08T19:35:37.824Z,37.37
2018-06-08T19:38:06.627Z,37.97
2018-06-08T19:40:35.725Z,37.47
2018-06-08T19:43:03.609Z,35.17
2018-06-08T19:45:31.629Z,37.43
2018-06-08T19:47:59.409Z,37.63
2018-06-08T19:50:26.924Z,37.60
2018-06-08T19:52:54.832Z,39.57
2018-06-08T19:55:22.242Z,39.70
2018-06-08T19:57:50.355Z,40.73
2018-06-08T20:00:17.880Z,39.13
2018-06-08T20:02:45.654Z,43.10
2018-06-08T20:05:13.576Z,37.13
2018-06-08T20:07:41.577Z,37.13
2018-06-08T20:10:09.450Z,36.43
2018-06-08T20:12:37.590Z,36.90
2018-06-08T20:15:05.522Z,37.50
2018-06-08T20:17:38.677Z,36.90
2018-06-08T20:20:06.401Z,36.33
2018-06-08T20:22:34.669Z,37.13
2018-06-08T20:25:02.701Z,38.33
2018-06-08T20:27:30.321Z,39.30
2018-06-08T20:29:58.806Z,38.23
2018-06-08T20:32:27.049Z,40.40
2018-06-08T20:34:54.510Z,37.67
2018-06-08T20:37:21.903Z,38.23
2018-06-08T20:39:49.217Z,40.27
2018-06-08T20:42:16.524Z,38.90
2018-06-08T20:44:43.850Z,39.67
2018-06-08T20:47:11.139Z,40.77
2018-06-08T20:49:38.457Z,39.60
2018-06-08T20:52:05.754Z,39.73
2018-06-08T20:54:33.080Z,40.57
2018-06-08T20:57:05.851Z,37.77
2018-06-08T20:59:33.155Z,37.87
2018-06-08T21:02:00.522Z,38.97
2018-06-08T21:04:27.882Z,38.67
2018-06-08T21:06:55.220Z,40.43
2018-06-08T21:09:23.260Z,41.20
2018-06-08T21:11:50.790Z,40.13
2018-06-08T21:14:18.136Z,40.30
2018-06-08T21:16:45.521Z,41.07
2018-06-08T21:19:12.812Z,39.97
2018-06-08T21:21:40.127Z,41.27
2018-06-08T21:24:07.416Z,40.93
2018-06-08T21:26:34.721Z,41.87
2018-06-08T21:29:02.028Z,41.93
2018-06-08T21:31:29.369Z,41.43
2018-06-08T21:33:56.676Z,43.20
2018-06-08T21:36:23.986Z,46.47
2018-06-08T21:38:51.326Z,44.60
2018-06-08T21:41:18.690Z,47.93
2018-06-08T21:43:45.995Z,47.47
2018-06-08T21:46:13.328Z,51.53
2018-06-08T21:48:40.617Z,57.53
2018-06-08T21:51:07.933Z,52.43
2018-06-08T21:53:35.234Z,58.87
2018-06-08T21:56:02.572Z,64.20
2018-06-08T21:58:29.848Z,68.07
2018-06-08T22:00:57.243Z,62.40
2018-06-08T22:03:24.537Z,67.63
2018-06-08T22:05:51.856Z,71.80
2018-06-08T22:08:19.143Z,75.97
2018-06-08T22:10:46.448Z,74.37
2018-06-08T22:13:13.712Z,77.90
2018-06-08T22:15:41.020Z,77.17
2018-06-08T22:18:08.319Z,80.63
2018-06-08T22:20:35.662Z,83.40
2018-06-08T22:23:02.979Z,77.33
2018-06-08T22:25:30.289Z,82.43
2018-06-08T22:27:57.592Z,74.77
2018-06-08T22:30:24.898Z,76.87
2018-06-08T22:32:52.395Z,81.47
2018-06-08T22:35:19.776Z,83.13
2018-06-08T22:37:47.079Z,91.57
2018-06-08T22:40:14.389Z,84.77
2018-06-08T22:42:41.693Z,89.83
2018-06-08T22:45:08.988Z,84.37
2018-06-08T22:47:36.294Z,86.17
2018-06-08T22:50:03.604Z,86.47
2018-06-08T22:52:30.921Z,87.17
2018-06-08T22:54:58.208Z,87.30
2018-06-08T22:57:25.545Z,89.23
2018-06-08T22:59:52.846Z,85.83
2018-06-08T23:02:20.180Z,88.27
2018-06-08T23:04:47.458Z,84.10
2018-06-08T23:07:14.772Z,94.37
2018-06-08T23:09:42.053Z,90.27
2018-06-08T23:12:09.377Z,90.57
2018-06-08T23:14:36.668Z,93.03
2018-06-08T23:17:04.021Z,92.37
2018-06-08T23:19:31.300Z,87.33
2018-06-08T23:21:58.596Z,85.77
2018-06-08T23:24:25.868Z,87.23
2018-06-08T23:26:53.172Z,103.03
2018-06-08T23:29:20.457Z,97.83
2018-06-08T23:31:47.760Z,108.70
2018-06-08T23:34:15.033Z,95.50
2018-06-08T23:36:42.322Z,98.70
2018-06-08T23:39:09.620Z,92.93
2018-06-08T23:41:36.960Z,96.53
2018-06-08T23:44:04.252Z,93.90
2018-06-08T23:46:31.580Z,95.90
2018-06-08T23:48:58.861Z,99.57
2018-06-08T23:51:26.166Z,98.50
2018-06-08T23:53:53.441Z,99.63
2018-06-08T23:56:20.761Z,105.30
2018-06-08T23:58:48.036Z,104.87
